Time;durP1;ratioP1;P1;durP2;ratioP2;P2;SDS_P1;SDS_P2;PMS_P1;PMS_P2;Temp;Humidity;BMP_temperature;BMP_pressure;BME280_temperature;BME280_humidity;BME280_pressure;Samples;Min_cycle;Max_cycle;Signal;HPM_P1;HPM_P2
2023/03/27 00:01:10;;;;;;;6.47;0.50;;;2.60;99.90;;;;;;4969160;28;20060;-75
2023/03/27 00:03:38;;;;;;;6.43;0.60;;;2.60;99.90;;;;;;4980079;28;20666;-76
2023/03/27 00:06:08;;;;;;;4.27;0.40;;;2.50;99.90;;;;;;4986785;28;20444;-75
2023/03/27 00:08:37;;;;;;;7.50;1.00;;;2.50;99.90;;;;;;4999222;28;20524;-76
2023/03/27 00:11:06;;;;;;;2.20;0.50;;;2.50;99.90;;;;;;4968527;28;20053;-76
2023/03/27 00:13:33;;;;;;;3.03;0.60;;;2.50;99.90;;;;;;4958726;28;20045;-75
2023/03/27 00:15:59;;;;;;;4.40;0.50;;;2.50;99.90;;;;;;4975447;28;20931;-75
2023/03/27 00:18:28;;;;;;;2.97;0.40;;;2.40;99.90;;;;;;4972496;28;20101;-75
2023/03/27 00:20:57;;;;;;;4.97;0.60;;;2.40;99.90;;;;;;4964173;28;20045;-76
2023/03/27 00:23:24;;;;;;;4.70;0.60;;;2.40;99.90;;;;;;4974230;28;20039;-76
2023/03/27 00:25:51;;;;;;;9.53;0.87;;;2.30;99.90;;;;;;4958902;28;21581;-75
2023/03/27 00:28:17;;;;;;;2.30;0.60;;;2.30;99.90;;;;;;4959223;28;20053;-75
2023/03/27 00:30:44;;;;;;;6.23;0.50;;;2.40;99.90;;;;;;4957946;28;20078;-75
2023/03/27 00:33:11;;;;;;;5.10;0.50;;;2.40;99.90;;;;;;4980608;28;20037;-75
2023/03/27 00:35:37;;;;;;;6.67;0.67;;;2.40;99.90;;;;;;4976546;28;20517;-75
2023/03/27 00:38:04;;;;;;;7.03;0.90;;;2.30;99.90;;;;;;4989792;28;20038;-75
2023/03/27 00:40:31;;;;;;;7.40;0.50;;;2.40;99.90;;;;;;4983138;28;20030;-75
2023/03/27 00:42:58;;;;;;;5.83;0.50;;;2.30;99.90;;;;;;4973991;28;20061;-75
2023/03/27 00:45:29;;;;;;;3.90;0.60;;;2.40;99.90;;;;;;4956633;28;20037;-75
2023/03/27 00:48:00;;;;;;;3.80;0.60;;;2.30;99.90;;;;;;4989800;28;20037;-75
2023/03/27 00:50:35;;;;;;;4.90;0.80;;;2.30;99.90;;;;;;4976102;28;20050;-74
2023/03/27 00:53:14;;;;;;;4.33;0.70;;;2.30;99.90;;;;;;4980310;28;20034;-75
2023/03/27 00:55:45;;;;;;;3.90;0.50;;;2.30;99.90;;;;;;4994008;28;20045;-74
2023/03/27 00:58:28;;;;;;;3.23;0.40;;;2.30;99.90;;;;;;4988728;28;20038;-75
2023/03/27 01:00:56;;;;;;;8.37;0.80;;;2.30;99.90;;;;;;4967947;28;20076;-77
2023/03/27 01:03:26;;;;;;;4.27;0.60;;;2.20;99.90;;;;;;4957689;28;20049;-75
2023/03/27 01:05:54;;;;;;;5.55;0.57;;;2.20;99.90;;;;;;4973490;28;20033;-75
2023/03/27 01:08:21;;;;;;;4.82;0.47;;;2.20;99.90;;;;;;4975178;28;21378;-75
2023/03/27 01:11:11;;;;;;;3.73;0.60;;;2.20;99.90;;;;;;4974462;28;20052;-74
2023/03/27 01:13:54;;;;;;;5.57;0.50;;;2.20;99.90;;;;;;4983354;28;20037;-75
2023/03/27 01:16:29;;;;;;;3.55;0.47;;;2.20;99.90;;;;;;4982877;28;20524;-75
2023/03/27 01:19:34;;;;;;;4.13;0.63;;;2.20;99.90;;;;;;4986919;28;20833;-76
2023/03/27 01:22:28;;;;;;;7.70;0.80;;;2.20;99.90;;;;;;4932489;28;20518;-75
2023/03/27 01:25:25;;;;;;;2.03;0.80;;;2.20;99.90;;;;;;4989994;28;20050;-75
2023/03/27 01:28:14;;;;;;;6.23;0.50;;;2.20;99.90;;;;;;4975493;28;20046;-75
2023/03/27 01:31:10;;;;;;;9.20;0.53;;;2.10;99.90;;;;;;4973353;28;20046;-75
2023/03/27 01:34:07;;;;;;;4.10;0.60;;;2.10;99.90;;;;;;4965101;28;20034;-75
2023/03/27 01:36:33;;;;;;;4.97;0.63;;;2.10;99.90;;;;;;4958998;28;20041;-75
2023/03/27 01:39:24;;;;;;;11.03;1.70;;;2.10;99.90;;;;;;4987634;28;20504;-75
2023/03/27 01:41:58;;;;;;;7.03;0.97;;;2.10;99.90;;;;;;4954502;28;20049;-75
2023/03/27 01:44:49;;;;;;;6.70;0.93;;;2.20;99.90;;;;;;4956830;28;20060;-75
2023/03/27 01:47:42;;;;;;;6.80;0.70;;;2.20;99.90;;;;;;4972472;28;20053;-75
2023/03/27 01:50:38;;;;;;;5.10;0.75;;;2.20;99.90;;;;;;4951614;28;20455;-75
2023/03/27 01:53:12;;;;;;;5.33;0.70;;;2.20;99.90;;;;;;4976764;28;20045;-76
2023/03/27 01:55:44;;;;;;;7.47;0.70;;;2.20;99.90;;;;;;4979981;28;20046;-76
2023/03/27 01:58:20;;;;;;;5.20;0.70;;;2.20;99.90;;;;;;4957963;28;20228;-76
2023/03/27 02:00:52;;;;;;;3.90;0.70;;;2.20;99.90;;;;;;4949380;28;20489;-75
2023/03/27 02:03:25;;;;;;;5.97;0.67;;;2.20;99.90;;;;;;4972499;28;20057;-75
2023/03/27 02:06:12;;;;;;;3.37;0.70;;;2.30;99.90;;;;;;4972938;28;20053;-75
2023/03/27 02:08:47;;;;;;;5.40;0.93;;;2.30;99.90;;;;;;4972538;28;20034;-75
2023/03/27 02:11:16;;;;;;;4.20;0.90;;;2.40;99.90;;;;;;4969157;28;20050;-75
2023/03/27 02:13:52;;;;;;;9.07;1.37;;;2.40;99.90;;;;;;4981552;28;20035;-75
2023/03/27 02:16:23;;;;;;;6.50;1.17;;;2.40;99.90;;;;;;4963664;28;20045;-75
2023/03/27 02:18:56;;;;;;;8.73;1.10;;;2.40;99.90;;;;;;4971672;28;20038;-75
2023/03/27 02:21:24;;;;;;;9.87;1.10;;;2.40;99.90;;;;;;4965773;28;20041;-74
2023/03/27 02:23:51;;;;;;;7.43;0.90;;;2.40;99.90;;;;;;4971503;28;20077;-75
2023/03/27 02:26:18;;;;;;;7.37;0.90;;;2.40;99.90;;;;;;4987268;28;20037;-74
2023/03/27 02:29:05;;;;;;;8.33;0.87;;;2.50;99.90;;;;;;4953530;28;20048;-75
2023/03/27 02:31:50;;;;;;;5.50;0.80;;;2.50;99.90;;;;;;4967817;28;20370;-75
2023/03/27 02:34:53;;;;;;;7.10;0.70;;;2.50;99.90;;;;;;4998148;28;20038;-75
2023/03/27 02:37:45;;;;;;;3.40;0.50;;;2.40;99.90;;;;;;4979972;28;20388;-75
2023/03/27 02:40:39;;;;;;;7.63;0.67;;;2.40;99.90;;;;;;4958157;28;22513;-75
2023/03/27 02:43:40;;;;;;;5.30;0.50;;;2.30;99.90;;;;;;4970883;28;20053;-75
2023/03/27 02:46:19;;;;;;;3.67;0.50;;;2.20;99.90;;;;;;4973643;28;20678;-75
2023/03/27 02:48:50;;;;;;;5.00;0.60;;;2.20;99.90;;;;;;4953125;28;20424;-75
2023/03/27 02:51:23;;;;;;;3.53;0.80;;;2.20;99.90;;;;;;4950811;28;20053;-75
2023/03/27 02:53:54;;;;;;;7.00;0.73;;;2.10;99.90;;;;;;4979504;28;20083;-75
2023/03/27 02:56:24;;;;;;;4.13;0.55;;;2.10;99.90;;;;;;4979036;28;20053;-75
2023/03/27 02:59:21;;;;;;;4.53;0.70;;;2.10;99.90;;;;;;4954939;28;20046;-76
2023/03/27 03:01:48;;;;;;;3.50;0.67;;;2.10;99.90;;;;;;4954062;28;20504;-75
2023/03/27 03:04:20;;;;;;;1.80;0.47;;;2.00;99.90;;;;;;4956215;28;20042;-75
2023/03/27 03:07:08;;;;;;;2.77;0.40;;;2.00;99.90;;;;;;4973203;28;20413;-75
2023/03/27 03:09:36;;;;;;;5.23;0.50;;;2.00;99.90;;;;;;4966766;28;20044;-75
2023/03/27 03:12:02;;;;;;;5.23;0.80;;;1.90;99.90;;;;;;4970502;28;20037;-75
2023/03/27 03:14:39;;;;;;;3.30;0.70;;;1.90;99.90;;;;;;4980102;28;20081;-75
2023/03/27 03:17:06;;;;;;;2.57;0.50;;;1.90;99.90;;;;;;4960541;28;20042;-75
2023/03/27 03:19:32;;;;;;;3.13;0.60;;;1.90;99.90;;;;;;4982482;28;20604;-75
2023/03/27 03:21:59;;;;;;;6.40;0.60;;;1.90;99.90;;;;;;4951219;28;20049;-75
2023/03/27 03:24:26;;;;;;;2.70;0.50;;;1.90;99.90;;;;;;4987136;28;20048;-75
2023/03/27 03:26:53;;;;;;;3.13;0.47;;;1.90;99.90;;;;;;4954737;28;20396;-75
2023/03/27 03:29:20;;;;;;;4.53;1.07;;;1.90;99.90;;;;;;4950312;28;20512;-75
2023/03/27 03:32:01;;;;;;;4.70;0.60;;;1.90;99.90;;;;;;4985394;28;20049;-75
2023/03/27 03:34:29;;;;;;;4.10;1.00;;;2.00;99.90;;;;;;4982985;28;20477;-75
2023/03/27 03:36:55;;;;;;;3.13;0.60;;;2.00;99.90;;;;;;4996351;28;20038;-75
2023/03/27 03:39:28;;;;;;;;;;;2.00;99.90;;;;;;4954397;28;20050;-75
2023/03/27 03:41:54;;;;;;;5.07;0.70;;;2.10;99.90;;;;;;4984723;28;19948;-75
2023/03/27 03:44:21;;;;;;;3.50;0.50;;;2.20;99.90;;;;;;4957011;28;20045;-75
2023/03/27 03:46:47;;;;;;;4.83;0.67;;;2.30;99.90;;;;;;4974280;28;20030;-75
2023/03/27 03:49:19;;;;;;;4.63;0.50;;;2.40;99.90;;;;;;4968187;28;21142;-75
2023/03/27 03:51:46;;;;;;;2.10;0.50;;;2.50;99.90;;;;;;4952805;28;20038;-76
2023/03/27 03:54:13;;;;;;;4.10;0.50;;;2.50;99.90;;;;;;4988417;28;20068;-75
2023/03/27 03:56:42;;;;;;;2.63;0.60;;;2.60;99.90;;;;;;4958456;28;20477;-75
2023/03/27 03:59:10;;;;;;;5.87;0.70;;;2.60;99.90;;;;;;4994197;28;20053;-77
2023/03/27 04:01:51;;;;;;;2.90;0.65;;;2.60;99.90;;;;;;4980039;28;20050;-75
2023/03/27 04:04:18;;;;;;;4.00;0.80;;;2.60;99.90;;;;;;4966230;28;20038;-75
2023/03/27 04:06:59;;;;;;;4.63;0.60;;;2.60;99.90;;;;;;4975660;28;20029;-75
2023/03/27 04:09:32;;;;;;;3.78;0.70;;;2.60;99.90;;;;;;4968052;28;20041;-75
2023/03/27 04:12:10;;;;;;;2.43;0.40;;;2.60;99.90;;;;;;4985194;28;20481;-74
2023/03/27 04:14:47;;;;;;;2.83;0.70;;;2.50;99.90;;;;;;4972963;28;20413;-75
2023/03/27 04:17:33;;;;;;;2.97;0.40;;;2.40;99.90;;;;;;4972610;28;20405;-75
2023/03/27 04:20:01;;;;;;;2.23;0.40;;;2.30;99.90;;;;;;4959217;28;20045;-77
2023/03/27 04:22:28;;;;;;;1.80;0.40;;;2.20;99.90;;;;;;4980922;28;21126;-77
2023/03/27 04:24:57;;;;;;;0.93;0.50;;;2.20;99.90;;;;;;4980483;28;20041;-77
2023/03/27 04:27:29;;;;;;;3.57;0.40;;;2.10;99.90;;;;;;4946762;28;20413;-77
2023/03/27 04:30:01;;;;;;;0.77;0.20;;;2.10;99.90;;;;;;4967681;28;20991;-76
2023/03/27 04:32:59;;;;;;;1.63;0.23;;;2.10;99.90;;;;;;4959956;28;20042;-76
2023/03/27 04:35:38;;;;;;;0.50;0.20;;;2.00;99.90;;;;;;4975735;28;20042;-76
2023/03/27 04:38:18;;;;;;;0.30;0.20;;;2.00;99.90;;;;;;4958303;28;20037;-76
2023/03/27 04:40:48;;;;;;;2.67;0.50;;;1.90;99.90;;;;;;4974624;28;20053;-76
2023/03/27 04:43:16;;;;;;;1.67;0.40;;;1.90;99.90;;;;;;4965769;28;20409;-76
2023/03/27 04:45:46;;;;;;;1.17;0.40;;;1.90;99.90;;;;;;4964405;28;20369;-76
2023/03/27 04:48:14;;;;;;;2.10;0.30;;;1.80;99.90;;;;;;4960788;28;20610;-75
2023/03/27 04:50:48;;;;;;;1.10;0.20;;;1.80;99.90;;;;;;4966918;28;20053;-75
2023/03/27 04:53:31;;;;;;;2.43;0.40;;;1.70;99.90;;;;;;4972872;28;21173;-76
2023/03/27 04:55:57;;;;;;;0.50;0.20;;;1.70;99.90;;;;;;4989348;28;20037;-75
2023/03/27 04:58:24;;;;;;;0.83;0.30;;;1.60;99.90;;;;;;4975483;28;20045;-75
2023/03/27 05:00:54;;;;;;;1.20;0.20;;;1.60;99.90;;;;;;4971775;28;20038;-75
2023/03/27 05:03:47;;;;;;;1.50;0.40;;;1.60;99.90;;;;;;4982101;28;20053;-75
2023/03/27 05:06:32;;;;;;;1.33;0.40;;;1.50;99.90;;;;;;4975939;28;20067;-74
2023/03/27 05:08:59;;;;;;;1.17;0.33;;;1.50;99.90;;;;;;4986392;28;20053;-75
2023/03/27 05:11:30;;;;;;;0.90;0.30;;;1.50;99.90;;;;;;4968532;28;20117;-75
2023/03/27 05:13:57;;;;;;;3.90;0.40;;;1.50;99.90;;;;;;4989384;28;20045;-75
2023/03/27 05:16:26;;;;;;;1.07;0.40;;;1.50;99.90;;;;;;4972634;28;20056;-75
2023/03/27 05:18:57;;;;;;;0.70;0.23;;;1.40;99.90;;;;;;4972468;28;20093;-76
2023/03/27 05:21:24;;;;;;;2.20;0.47;;;1.50;99.90;;;;;;4972450;28;20045;-74
2023/03/27 05:23:52;;;;;;;1.77;0.67;;;1.40;99.90;;;;;;4980859;28;20467;-74
2023/03/27 05:26:22;;;;;;;3.17;1.33;;;1.40;99.90;;;;;;4975966;28;20040;-75
2023/03/27 05:28:58;;;;;;;2.50;0.80;;;1.40;99.90;;;;;;4954156;28;20405;-74
2023/03/27 05:31:26;;;;;;;3.53;0.80;;;1.40;99.90;;;;;;4965442;28;20044;-74
2023/03/27 05:34:07;;;;;;;1.27;0.40;;;1.50;99.90;;;;;;4986928;28;20050;-75
2023/03/27 05:36:35;;;;;;;1.37;0.43;;;1.50;99.90;;;;;;4952466;28;20060;-74
2023/03/27 05:39:03;;;;;;;1.10;0.50;;;1.60;99.90;;;;;;4952481;28;20042;-74
2023/03/27 05:41:34;;;;;;;5.23;1.87;;;1.60;99.90;;;;;;4954559;28;20057;-74
2023/03/27 05:44:02;;;;;;;1.57;0.80;;;1.60;99.90;;;;;;4994482;28;20060;-73
2023/03/27 05:46:33;;;;;;;3.42;0.60;;;1.60;99.90;;;;;;4980293;28;20041;-73
2023/03/27 05:49:06;;;;;;;2.43;0.50;;;1.60;99.90;;;;;;4975355;28;20677;-75
2023/03/27 05:51:33;;;;;;;3.10;0.50;;;1.60;99.90;;;;;;4958520;28;20050;-75
2023/03/27 05:53:59;;;;;;;1.77;0.50;;;1.60;99.90;;;;;;4979612;28;20058;-74
2023/03/27 05:56:34;;;;;;;1.63;0.40;;;1.60;99.90;;;;;;4971432;28;20092;-74
2023/03/27 05:59:03;;;;;;;2.03;0.50;;;1.60;99.90;;;;;;4985240;28;20033;-75
2023/03/27 06:01:34;;;;;;;3.53;0.50;;;1.60;99.90;;;;;;4967396;28;20565;-75
2023/03/27 06:04:03;;;;;;;1.50;0.50;;;1.60;99.90;;;;;;4954250;28;20053;-75
2023/03/27 06:06:47;;;;;;;2.33;0.50;;;1.60;99.90;;;;;;4972576;28;20045;-74
2023/03/27 06:09:14;;;;;;;1.90;0.60;;;1.60;99.90;;;;;;4951481;28;20041;-75
2023/03/27 06:11:48;;;;;;;2.17;0.53;;;1.70;99.90;;;;;;4986281;28;20056;-74
2023/03/27 06:14:15;;;;;;;2.30;0.60;;;1.80;99.90;;;;;;4978059;28;20045;-75
2023/03/27 06:17:05;;;;;;;2.27;0.60;;;1.90;99.90;;;;;;4965118;28;20497;-74
2023/03/27 06:19:40;;;;;;;3.33;0.60;;;2.10;99.90;;;;;;4972671;28;20045;-74
2023/03/27 06:22:07;;;;;;;2.70;0.80;;;2.20;99.90;;;;;;4973517;28;20048;-74
2023/03/27 06:24:34;;;;;;;1.80;0.87;;;2.40;99.90;;;;;;4987008;28;20410;-74
2023/03/27 06:27:03;;;;;;;3.57;0.90;;;2.50;99.90;;;;;;4985229;28;20049;-75
2023/03/27 06:29:36;;;;;;;3.63;0.80;;;2.70;99.90;;;;;;4966367;28;20084;-75
2023/03/27 06:32:03;;;;;;;4.57;1.43;;;2.80;99.90;;;;;;4969363;28;20042;-75
2023/03/27 06:34:36;;;;;;;3.37;1.00;;;2.90;99.90;;;;;;4971803;28;20077;-75
2023/03/27 06:37:25;;;;;;;4.03;0.80;;;3.10;99.90;;;;;;4977860;28;20061;-74
2023/03/27 06:39:53;;;;;;;2.03;0.70;;;3.20;99.90;;;;;;4990435;28;20045;-74
2023/03/27 06:42:20;;;;;;;3.30;0.70;;;3.30;99.90;;;;;;4956106;28;20053;-74
2023/03/27 06:45:10;;;;;;;2.03;0.70;;;3.40;99.90;;;;;;4988520;28;20401;-74
2023/03/27 06:48:02;;;;;;;5.97;1.30;;;3.50;99.90;;;;;;4964386;28;22827;-74
2023/03/27 06:50:41;;;;;;;4.33;0.90;;;3.50;99.90;;;;;;4965258;28;20061;-74
2023/03/27 06:53:10;;;;;;;3.33;0.83;;;3.40;99.90;;;;;;4970941;28;20493;-74
2023/03/27 06:55:48;;;;;;;4.80;0.95;;;3.50;99.90;;;;;;4978835;28;20978;-74
2023/03/27 06:58:17;;;;;;;3.92;0.75;;;3.60;99.90;;;;;;4997126;28;20038;-74
2023/03/27 07:00:44;;;;;;;7.20;1.13;;;3.80;99.90;;;;;;4970252;28;20053;-74
2023/03/27 07:03:19;;;;;;;5.97;0.80;;;3.90;99.90;;;;;;4973012;28;20046;-74
2023/03/27 07:06:06;;;;;;;4.10;0.90;;;3.90;99.90;;;;;;4970530;28;20436;-74
2023/03/27 07:08:48;;;;;;;2.90;0.70;;;3.80;99.90;;;;;;4953329;28;20076;-75
2023/03/27 07:11:15;;;;;;;2.78;0.90;;;3.70;99.90;;;;;;4983649;28;20579;-75
2023/03/27 07:13:48;;;;;;;8.02;1.55;;;3.70;99.90;;;;;;4972060;28;20061;-75
2023/03/27 07:16:21;;;;;;;4.05;0.80;;;3.80;99.90;;;;;;4979305;28;20034;-75
2023/03/27 07:18:48;;;;;;;5.10;0.80;;;3.90;99.90;;;;;;4982785;28;20033;-78
2023/03/27 07:21:15;;;;;;;5.17;0.90;;;4.00;99.90;;;;;;4977860;28;20454;-76
2023/03/27 07:23:41;;;;;;;4.13;1.10;;;4.20;99.90;;;;;;4977728;28;20669;-75
2023/03/27 07:26:10;;;;;;;4.38;1.10;;;4.30;99.90;;;;;;4975246;28;20038;-75
2023/03/27 07:28:56;;;;;;;3.80;1.23;;;4.40;99.90;;;;;;4973814;28;20033;-76
2023/03/27 07:31:22;;;;;;;7.43;1.02;;;4.50;99.90;;;;;;4970208;28;20417;-77
2023/03/27 07:33:50;;;;;;;4.40;0.88;;;4.70;99.90;;;;;;4974760;28;20042;-76
2023/03/27 07:36:18;;;;;;;8.27;1.38;;;4.70;99.90;;;;;;4994624;28;20641;-76
2023/03/27 07:39:05;;;;;;;7.38;1.05;;;4.80;99.90;;;;;;4981720;28;20492;-76
2023/03/27 07:41:32;;;;;;;5.78;1.27;;;4.90;99.90;;;;;;4976859;28;20129;-76
2023/03/27 07:43:59;;;;;;;5.68;1.75;;;5.00;99.90;;;;;;4976908;28;20048;-76
2023/03/27 07:46:30;;;;;;;7.50;1.10;;;5.20;99.90;;;;;;4975070;28;20046;-76
2023/03/27 07:49:01;;;;;;;9.52;1.85;;;5.30;99.90;;;;;;4987265;28;20046;-76
2023/03/27 07:51:28;;;;;;;5.45;1.33;;;5.40;99.90;;;;;;4972763;28;20034;-76
2023/03/27 07:53:57;;;;;;;14.40;2.35;;;5.50;99.90;;;;;;4976518;28;22188;-76
2023/03/27 07:56:39;;;;;;;6.70;1.20;;;5.60;99.90;;;;;;4965979;28;20045;-76
2023/03/27 07:59:41;;;;;;;7.15;1.60;;;5.60;99.90;;;;;;4984109;28;20041;-76
2023/03/27 08:02:15;;;;;;;7.70;1.60;;;5.50;99.90;;;;;;4960524;28;20034;-76
2023/03/27 08:04:42;;;;;;;6.72;1.10;;;5.40;99.90;;;;;;4972305;28;20622;-82
2023/03/27 08:07:10;;;;;;;7.97;1.23;;;5.30;99.90;;;;;;4990839;28;20056;-77
2023/03/27 08:09:39;;;;;;;6.32;1.00;;;5.20;99.90;;;;;;4968928;28;20045;-76
2023/03/27 08:12:06;;;;;;;4.72;1.00;;;5.20;99.90;;;;;;4969295;28;20042;-76
2023/03/27 08:14:37;;;;;;;5.32;0.77;;;5.10;99.90;;;;;;4977272;28;20389;-76
2023/03/27 08:17:13;;;;;;;5.60;0.80;;;5.20;99.90;;;;;;4982589;28;20042;-76
2023/03/27 08:19:40;;;;;;;9.70;1.55;;;5.20;99.90;;;;;;4960574;28;20041;-76
2023/03/27 08:22:07;;;;;;;5.30;0.90;;;5.30;99.90;;;;;;4990314;28;20044;-76
2023/03/27 08:24:51;;;;;;;7.10;1.00;;;5.40;99.90;;;;;;4975968;28;20050;-77
2023/03/27 08:27:23;;;;;;;7.40;1.35;;;5.70;99.90;;;;;;4987390;28;20061;-76
2023/03/27 08:29:51;;;;;;;5.90;1.10;;;6.00;99.90;;;;;;4968371;28;20409;-77
2023/03/27 08:32:18;;;;;;;10.48;1.38;;;6.20;99.90;;;;;;4969626;28;20046;-77
2023/03/27 08:34:45;;;;;;;5.38;1.20;;;6.50;99.90;;;;;;4959705;28;20034;-77
2023/03/27 08:37:17;;;;;;;6.45;0.90;;;6.70;99.90;;;;;;4982057;28;20194;-77
2023/03/27 08:40:12;;;;;;;7.35;1.42;;;6.90;99.90;;;;;;4989291;28;20038;-77
2023/03/27 08:42:43;;;;;;;7.00;0.98;;;7.10;99.90;;;;;;4940930;28;20091;-78
2023/03/27 08:45:20;;;;;;;6.95;1.00;;;7.30;99.90;;;;;;4973248;28;20064;-77
2023/03/27 08:47:57;;;;;;;8.23;1.13;;;7.50;99.90;;;;;;4990266;28;20045;-77
2023/03/27 08:50:32;;;;;;;4.30;1.02;;;7.70;99.90;;;;;;4968079;28;20058;-77
2023/03/27 08:53:32;;;;;;;;;;;7.70;99.90;;;;;;4973615;28;20057;-77
2023/03/27 08:56:02;;;;;;;3.40;0.40;;;7.50;99.90;;;;;;4981570;28;19918;-77
2023/03/27 08:58:38;;;;;;;1.67;0.50;;;7.00;99.90;;;;;;4997736;28;20037;-77
2023/03/27 09:01:35;;;;;;;3.60;0.50;;;6.70;99.90;;;;;;4972224;28;20057;-77
2023/03/27 09:04:32;;;;;;;4.32;0.50;;;6.50;99.90;;;;;;4975024;28;20057;-77
2023/03/27 09:07:31;;;;;;;3.70;0.40;;;6.30;99.90;;;;;;4973521;28;20033;-77
2023/03/27 09:10:31;;;;;;;2.47;0.43;;;6.00;99.90;;;;;;4968321;28;20049;-76
2023/03/27 09:13:19;;;;;;;1.55;0.32;;;5.90;99.90;;;;;;4976274;28;20483;-77
2023/03/27 09:15:58;;;;;;;1.75;0.20;;;6.00;99.90;;;;;;4983153;28;20029;-77
2023/03/27 09:18:47;;;;;;;1.88;0.25;;;6.00;99.90;;;;;;4982668;28;20054;-78
2023/03/27 09:21:36;;;;;;;0.68;0.20;;;6.10;99.90;;;;;;4968336;28;20034;-77
2023/03/27 09:24:18;;;;;;;1.25;0.20;;;6.10;99.90;;;;;;4987934;28;20049;-77
2023/03/27 09:27:16;;;;;;;1.23;0.30;;;6.30;99.90;;;;;;4990449;28;20064;-77
2023/03/27 09:30:18;;;;;;;0.65;0.20;;;6.40;99.90;;;;;;4952493;28;20038;-78
2023/03/27 09:32:55;;;;;;;2.78;0.52;;;6.60;99.90;;;;;;4974305;28;20413;-77
2023/03/27 09:35:22;;;;;;;3.58;0.50;;;6.80;99.90;;;;;;4966157;28;20049;-77
2023/03/27 09:37:57;;;;;;;3.53;0.35;;;6.90;99.90;;;;;;4981328;28;20855;-77
2023/03/27 09:40:29;;;;;;;;;;;7.00;99.90;;;;;;4967959;28;20042;-77
2023/03/27 09:43:13;;;;;;;4.30;0.50;;;7.10;99.90;;;;;;4970650;28;19921;-78
2023/03/27 09:45:41;;;;;;;4.10;0.93;;;7.30;99.90;;;;;;4971841;28;20386;-78
2023/03/27 09:48:16;;;;;;;2.30;0.40;;;7.30;99.90;;;;;;4971337;28;20492;-77
2023/03/27 09:50:46;;;;;;;5.45;0.60;;;7.60;99.90;;;;;;4966363;28;20053;-78
2023/03/27 09:53:57;;;;;;;3.97;0.50;;;8.00;99.90;;;;;;4980172;28;20057;-77
2023/03/27 09:56:23;;;;;;;4.20;0.60;;;8.50;99.90;;;;;;4980923;28;20042;-78
2023/03/27 09:58:53;;;;;;;2.88;0.90;;;8.70;99.90;;;;;;4958880;28;20045;-77
2023/03/27 10:01:35;;;;;;;1.52;0.40;;;8.50;99.90;;;;;;4965271;28;20042;-78
2023/03/27 10:04:17;;;;;;;3.65;0.30;;;8.30;99.90;;;;;;4971868;28;20044;-77
2023/03/27 10:07:09;;;;;;;3.30;0.40;;;8.20;99.90;;;;;;4974231;28;20042;-78
2023/03/27 10:10:10;;;;;;;3.10;0.40;;;8.00;99.90;;;;;;4969368;28;20416;-77
2023/03/27 10:13:00;;;;;;;4.47;0.43;;;7.70;99.90;;;;;;4993843;28;20041;-76
2023/03/27 10:15:35;;;;;;;2.50;0.30;;;7.30;99.90;;;;;;4998165;28;20470;-76
2023/03/27 10:18:05;;;;;;;10.32;2.65;;;6.90;99.90;;;;;;4973958;28;20394;-78
2023/03/27 10:20:32;;;;;;;3.47;0.88;;;7.00;99.90;;;;;;4982647;28;20033;-77
2023/03/27 10:23:00;;;;;;;4.15;0.40;;;7.20;99.90;;;;;;4969344;28;20029;-78
2023/03/27 10:25:44;;;;;;;4.03;0.30;;;7.40;99.90;;;;;;4973146;28;20504;-78
2023/03/27 10:28:33;;;;;;;4.13;0.50;;;7.90;99.90;;;;;;4987019;28;20045;-78
2023/03/27 10:31:26;;;;;;;2.50;0.50;;;8.30;99.90;;;;;;4967334;28;20049;-78
2023/03/27 10:34:50;;;;;;;4.15;0.52;;;8.70;99.90;;;;;;4980425;28;20042;-78
2023/03/27 10:37:39;;;;;;;5.05;0.57;;;9.20;99.90;;;;;;4977466;28;20038;-78
2023/03/27 10:40:38;;;;;;;3.38;0.60;;;9.60;99.90;;;;;;4988032;28;20059;-78
2023/03/27 10:43:14;;;;;;;2.05;0.20;;;10.20;99.90;;;;;;4971824;28;20050;-82
2023/03/27 10:45:48;;;;;;;4.28;1.02;;;10.80;99.90;;;;;;4957849;28;20049;-80
2023/03/27 10:48:37;;;;;;;4.32;1.20;;;11.30;99.90;;;;;;4973243;28;20638;-82
2023/03/27 10:51:07;;;;;;;2.90;0.40;;;11.80;99.90;;;;;;4968979;28;20050;-81
2023/03/27 10:53:55;;;;;;;3.08;0.50;;;11.80;99.90;;;;;;4964851;28;20052;-80
2023/03/27 10:56:52;;;;;;;3.33;0.77;;;11.50;99.90;;;;;;4960921;28;20045;-81
2023/03/27 10:59:30;;;;;;;3.55;0.50;;;11.70;99.90;;;;;;4965627;28;20041;-85
2023/03/27 11:02:03;;;;;;;2.65;0.40;;;11.80;99.90;;;;;;4969007;28;20038;-81
2023/03/27 11:05:11;;;;;;;5.97;1.10;;;11.80;99.90;;;;;;4987690;28;20073;-79
2023/03/27 11:07:51;;;;;;;3.97;0.60;;;11.50;99.90;;;;;;4971316;28;20030;-83
2023/03/27 11:10:38;;;;;;;1.88;0.35;;;11.30;99.90;;;;;;4968081;28;20048;-78
2023/03/27 11:13:16;;;;;;;2.28;0.30;;;11.00;99.90;;;;;;4962441;28;20033;-78
2023/03/27 11:16:13;;;;;;;1.60;0.40;;;11.20;99.90;;;;;;4961681;28;20488;-78
2023/03/27 11:19:22;;;;;;;2.88;0.57;;;11.40;99.90;;;;;;4969930;28;20042;-78
2023/03/27 11:22:13;;;;;;;2.80;0.45;;;11.70;99.90;;;;;;4971870;28;20060;-78
2023/03/27 11:24:54;;;;;;;3.25;0.30;;;12.00;99.90;;;;;;4972704;28;20045;-78
2023/03/27 11:27:32;;;;;;;2.95;0.30;;;11.70;99.90;;;;;;4988508;28;20034;-78
2023/03/27 11:30:27;;;;;;;4.47;0.60;;;11.40;99.90;;;;;;4964542;28;20041;-82
2023/03/27 11:33:34;;;;;;;2.42;0.50;;;11.30;99.90;;;;;;4978973;28;20046;-78
2023/03/27 11:36:24;;;;;;;4.63;0.73;;;11.10;99.90;;;;;;4996395;28;20040;-78
2023/03/27 11:39:31;;;;;;;3.92;0.40;;;11.20;99.90;;;;;;4951888;28;20613;-77
2023/03/27 11:42:01;;;;;;;2.40;0.50;;;10.70;99.90;;;;;;4935636;28;20053;-76
2023/03/27 11:44:31;;;;;;;1.38;0.30;;;9.80;99.90;;;;;;4971075;28;20053;-77
2023/03/27 11:47:42;;;;;;;4.00;0.52;;;9.10;99.90;;;;;;4974214;28;20912;-76
2023/03/27 11:50:11;;;;;;;2.38;0.43;;;8.70;99.90;;;;;;4967912;28;20702;-76
2023/03/27 11:52:57;;;;;;;6.25;0.63;;;8.50;99.90;;;;;;4993156;28;20505;-76
2023/03/27 11:56:02;;;;;;;5.15;0.47;;;8.30;99.90;;;;;;4979683;28;20480;-75
2023/03/27 11:58:46;;;;;;;4.90;0.65;;;8.10;99.90;;;;;;4954890;28;20584;-83
2023/03/27 12:01:12;;;;;;;6.35;0.38;;;8.90;99.90;;;;;;4962573;28;20392;-75
2023/03/27 12:04:04;;;;;;;4.63;0.52;;;10.10;99.90;;;;;;4971356;28;20068;-75
2023/03/27 12:07:12;;;;;;;3.78;0.50;;;11.30;99.90;;;;;;4973188;28;20050;-75
2023/03/27 12:10:11;;;;;;;8.13;0.63;;;12.70;99.90;;;;;;4953051;28;20046;-75
2023/03/27 12:13:05;;;;;;;3.53;0.55;;;13.70;99.90;;;;;;4983379;28;20807;-76
2023/03/27 12:15:35;;;;;;;3.00;0.60;;;14.20;99.90;;;;;;4961631;28;21260;-76
2023/03/27 12:18:20;;;;;;;4.72;0.60;;;14.50;99.90;;;;;;4988808;28;20084;-76
2023/03/27 12:20:53;;;;;;;2.17;0.40;;;14.70;97.80;;;;;;4981777;28;20509;-77
2023/03/27 12:23:32;;;;;;;2.78;0.30;;;14.80;94.70;;;;;;4973081;28;20096;-76
2023/03/27 12:26:45;;;;;;;3.63;0.60;;;15.10;93.20;;;;;;4986708;28;20056;-77
2023/03/27 12:29:47;;;;;;;2.78;0.30;;;15.50;92.80;;;;;;4968876;28;20398;-77
2023/03/27 12:32:45;;;;;;;1.65;0.30;;;16.10;93.30;;;;;;4995659;28;20053;-77
2023/03/27 12:35:19;;;;;;;3.40;0.63;;;16.80;91.50;;;;;;4966711;28;20046;-77
2023/03/27 12:38:00;;;;;;;5.53;0.60;;;17.00;89.30;;;;;;4957717;28;20312;-77
2023/03/27 12:40:36;;;;;;;3.75;0.50;;;17.30;86.90;;;;;;4985596;28;20042;-77
2023/03/27 12:43:26;;;;;;;3.72;0.50;;;17.20;87.10;;;;;;4970724;28;20811;-76
2023/03/27 12:46:21;;;;;;;3.75;0.65;;;16.90;83.10;;;;;;4975087;28;20371;-77
2023/03/27 12:48:56;;;;;;;3.45;0.40;;;16.70;81.90;;;;;;4971729;28;20044;-76
2023/03/27 12:51:38;;;;;;;3.58;0.45;;;17.10;83.20;;;;;;4991430;28;20050;-76
2023/03/27 12:54:30;;;;;;;2.80;0.35;;;17.30;82.80;;;;;;4999386;28;20485;-76
2023/03/27 12:57:17;;;;;;;2.40;0.32;;;16.70;81.50;;;;;;4977087;28;20646;-75
2023/03/27 12:59:57;;;;;;;1.83;0.30;;;15.20;87.00;;;;;;4983772;28;20050;-75
2023/03/27 13:02:33;;;;;;;3.80;0.50;;;13.50;90.30;;;;;;4985750;28;20495;-74
2023/03/27 13:05:13;;;;;;;3.05;0.40;;;12.10;91.80;;;;;;4974761;28;20046;-74
2023/03/27 13:07:40;;;;;;;3.00;0.38;;;11.30;94.10;;;;;;4974339;28;20042;-74
2023/03/27 13:10:55;;;;;;;2.05;0.30;;;10.80;95.40;;;;;;4990893;28;20503;-74
2023/03/27 13:13:51;;;;;;;1.77;0.30;;;10.30;96.20;;;;;;4981701;28;20037;-74
2023/03/27 13:16:23;;;;;;;6.65;0.65;;;9.80;98.00;;;;;;4972404;28;20041;-74
2023/03/27 13:18:54;;;;;;;4.70;0.55;;;9.50;99.10;;;;;;4971094;28;20052;-74
2023/03/27 13:21:50;;;;;;;3.10;0.30;;;9.20;99.90;;;;;;4963666;28;21162;-74
2023/03/27 13:24:48;;;;;;;4.30;0.60;;;10.10;99.90;;;;;;4972926;28;20041;-74
2023/03/27 13:27:40;;;;;;;6.32;0.47;;;12.00;99.90;;;;;;4956746;28;20038;-74
2023/03/27 13:30:57;;;;;;;1.52;0.25;;;13.80;99.10;;;;;;4971955;28;20488;-74
2023/03/27 13:33:46;;;;;;;6.68;0.50;;;14.60;96.10;;;;;;4980843;28;20037;-75
2023/03/27 13:36:28;;;;;;;2.78;0.50;;;14.00;93.50;;;;;;4974531;28;20054;-74
2023/03/27 13:38:55;;;;;;;4.18;0.50;;;13.50;93.70;;;;;;4968659;28;20042;-75
2023/03/27 13:42:04;;;;;;;3.22;0.40;;;13.80;94.10;;;;;;4948498;28;20046;-74
2023/03/27 13:45:04;;;;;;;5.05;0.70;;;14.60;94.40;;;;;;4958100;28;21165;-74
2023/03/27 13:47:51;;;;;;;3.20;0.35;;;15.80;92.00;;;;;;4971103;28;20050;-74
2023/03/27 13:50:23;;;;;;;3.05;0.30;;;16.60;91.00;;;;;;4967999;28;20057;-75
2023/03/27 13:53:12;;;;;;;2.20;0.57;;;17.20;88.80;;;;;;4988366;28;20481;-74